sensor_id;sensor_type;location;lat;lon;timestamp;P1;durP1;ratioP1;P2;durP2;ratioP2
9924;SDS011;5001;51.674;7.868;2023-04-15T00:00:56;10.70;;;6.90;;
9924;SDS011;5001;51.674;7.868;2023-04-15T00:03:26;11.30;;;7.03;;
9924;SDS011;5001;51.674;7.868;2023-04-15T00:05:54;8.00;;;6.80;;
9924;SDS011;5001;51.674;7.868;2023-04-15T00:08:21;10.13;;;6.80;;
9924;SDS011;5001;51.674;7.868;2023-04-15T00:10:49;8.80;;;7.10;;
9924;SDS011;5001;51.674;7.868;2023-04-15T00:13:16;15.23;;;9.03;;
9924;SDS011;5001;51.674;7.868;2023-04-15T00:15:43;33.17;;;16.57;;
9924;SDS011;5001;51.674;7.868;2023-04-15T00:18:10;27.70;;;13.50;;
9924;SDS011;5001;51.674;7.868;2023-04-15T00:20:37;36.67;;;17.67;;
9924;SDS011;5001;51.674;7.868;2023-04-15T00:23:04;48.53;;;22.33;;
9924;SDS011;5001;51.674;7.868;2023-04-15T00:25:31;36.43;;;17.80;;
9924;SDS011;5001;51.674;7.868;2023-04-15T00:27:58;40.67;;;19.67;;
9924;SDS011;5001;51.674;7.868;2023-04-15T00:30:25;26.83;;;14.83;;
9924;SDS011;5001;51.674;7.868;2023-04-15T00:32:52;17.07;;;10.80;;
9924;SDS011;5001;51.674;7.868;2023-04-15T00:35:20;11.80;;;8.97;;
9924;SDS011;5001;51.674;7.868;2023-04-15T00:37:49;10.93;;;7.77;;
9924;SDS011;5001;51.674;7.868;2023-04-15T00:40:17;9.27;;;7.50;;
9924;SDS011;5001;51.674;7.868;2023-04-15T00:42:46;10.50;;;7.50;;
9924;SDS011;5001;51.674;7.868;2023-04-15T00:45:13;11.57;;;7.07;;
9924;SDS011;5001;51.674;7.868;2023-04-15T00:47:41;10.27;;;7.33;;
9924;SDS011;5001;51.674;7.868;2023-04-15T00:50:09;9.30;;;6.83;;
9924;SDS011;5001;51.674;7.868;2023-04-15T00:52:38;9.23;;;6.87;;
9924;SDS011;5001;51.674;7.868;2023-04-15T00:55:06;8.00;;;7.17;;
9924;SDS011;5001;51.674;7.868;2023-04-15T00:57:34;8.97;;;6.60;;
9924;SDS011;5001;51.674;7.868;2023-04-15T01:00:02;7.23;;;6.40;;
9924;SDS011;5001;51.674;7.868;2023-04-15T01:02:30;10.97;;;7.40;;
9924;SDS011;5001;51.674;7.868;2023-04-15T01:05:00;11.47;;;7.80;;
9924;SDS011;5001;51.674;7.868;2023-04-15T01:07:30;9.27;;;7.17;;
9924;SDS011;5001;51.674;7.868;2023-04-15T01:09:57;10.00;;;7.33;;
9924;SDS011;5001;51.674;7.868;2023-04-15T01:12:25;9.00;;;6.77;;
9924;SDS011;5001;51.674;7.868;2023-04-15T01:14:53;8.03;;;6.93;;
9924;SDS011;5001;51.674;7.868;2023-04-15T01:17:21;9.00;;;7.53;;
9924;SDS011;5001;51.674;7.868;2023-04-15T01:19:50;8.07;;;7.13;;
9924;SDS011;5001;51.674;7.868;2023-04-15T01:22:18;8.33;;;7.00;;
9924;SDS011;5001;51.674;7.868;2023-04-15T01:24:50;8.70;;;6.93;;
9924;SDS011;5001;51.674;7.868;2023-04-15T01:27:25;8.30;;;6.97;;
9924;SDS011;5001;51.674;7.868;2023-04-15T01:29:52;10.03;;;8.37;;
9924;SDS011;5001;51.674;7.868;2023-04-15T01:32:19;11.80;;;9.20;;
9924;SDS011;5001;51.674;7.868;2023-04-15T01:34:46;10.23;;;8.03;;
9924;SDS011;5001;51.674;7.868;2023-04-15T01:37:13;10.13;;;7.43;;
9924;SDS011;5001;51.674;7.868;2023-04-15T01:39:41;8.43;;;7.23;;
9924;SDS011;5001;51.674;7.868;2023-04-15T01:42:09;10.30;;;7.40;;
9924;SDS011;5001;51.674;7.868;2023-04-15T01:44:36;9.77;;;7.83;;
9924;SDS011;5001;51.674;7.868;2023-04-15T01:47:03;10.27;;;7.77;;
9924;SDS011;5001;51.674;7.868;2023-04-15T01:49:31;13.03;;;8.43;;
9924;SDS011;5001;51.674;7.868;2023-04-15T01:51:59;15.30;;;9.23;;
9924;SDS011;5001;51.674;7.868;2023-04-15T01:54:26;10.20;;;8.50;;
9924;SDS011;5001;51.674;7.868;2023-04-15T01:56:53;12.30;;;7.97;;
9924;SDS011;5001;51.674;7.868;2023-04-15T01:59:20;10.23;;;8.37;;
9924;SDS011;5001;51.674;7.868;2023-04-15T02:01:47;11.43;;;8.63;;
9924;SDS011;5001;51.674;7.868;2023-04-15T02:04:14;10.03;;;7.60;;
9924;SDS011;5001;51.674;7.868;2023-04-15T02:06:44;9.00;;;7.83;;
9924;SDS011;5001;51.674;7.868;2023-04-15T02:09:12;10.60;;;9.50;;
9924;SDS011;5001;51.674;7.868;2023-04-15T02:11:40;10.23;;;8.20;;
9924;SDS011;5001;51.674;7.868;2023-04-15T02:14:09;11.93;;;10.37;;
9924;SDS011;5001;51.674;7.868;2023-04-15T02:16:36;16.67;;;13.53;;
9924;SDS011;5001;51.674;7.868;2023-04-15T02:19:03;12.90;;;9.87;;
9924;SDS011;5001;51.674;7.868;2023-04-15T02:21:30;36.37;;;22.90;;
9924;SDS011;5001;51.674;7.868;2023-04-15T02:23:57;21.93;;;16.13;;
9924;SDS011;5001;51.674;7.868;2023-04-15T02:26:24;15.87;;;11.63;;
9924;SDS011;5001;51.674;7.868;2023-04-15T02:28:53;10.23;;;8.60;;
9924;SDS011;5001;51.674;7.868;2023-04-15T02:31:20;13.27;;;8.67;;
9924;SDS011;5001;51.674;7.868;2023-04-15T02:33:47;11.67;;;9.33;;
9924;SDS011;5001;51.674;7.868;2023-04-15T02:36:14;16.30;;;10.37;;
9924;SDS011;5001;51.674;7.868;2023-04-15T02:38:42;11.73;;;9.30;;
9924;SDS011;5001;51.674;7.868;2023-04-15T02:41:11;14.87;;;9.50;;
9924;SDS011;5001;51.674;7.868;2023-04-15T02:43:39;17.83;;;13.00;;
9924;SDS011;5001;51.674;7.868;2023-04-15T02:46:07;16.33;;;11.77;;
9924;SDS011;5001;51.674;7.868;2023-04-15T02:48:38;16.17;;;12.40;;
9924;SDS011;5001;51.674;7.868;2023-04-15T02:51:12;22.50;;;14.17;;
9924;SDS011;5001;51.674;7.868;2023-04-15T02:53:45;16.37;;;11.53;;
9924;SDS011;5001;51.674;7.868;2023-04-15T02:56:13;14.87;;;12.07;;
9924;SDS011;5001;51.674;7.868;2023-04-15T02:58:42;17.07;;;12.97;;
9924;SDS011;5001;51.674;7.868;2023-04-15T03:01:11;21.77;;;14.07;;
9924;SDS011;5001;51.674;7.868;2023-04-15T03:03:39;13.73;;;10.80;;
9924;SDS011;5001;51.674;7.868;2023-04-15T03:06:06;21.03;;;15.17;;
9924;SDS011;5001;51.674;7.868;2023-04-15T03:08:34;27.53;;;17.10;;
9924;SDS011;5001;51.674;7.868;2023-04-15T03:11:01;21.47;;;13.93;;
9924;SDS011;5001;51.674;7.868;2023-04-15T03:13:31;23.63;;;16.57;;
9924;SDS011;5001;51.674;7.868;2023-04-15T03:16:03;26.53;;;16.83;;
9924;SDS011;5001;51.674;7.868;2023-04-15T03:18:31;17.73;;;12.63;;
9924;SDS011;5001;51.674;7.868;2023-04-15T03:21:01;15.40;;;12.30;;
9924;SDS011;5001;51.674;7.868;2023-04-15T03:23:30;15.03;;;11.80;;
9924;SDS011;5001;51.674;7.868;2023-04-15T03:26:00;22.90;;;15.13;;
9924;SDS011;5001;51.674;7.868;2023-04-15T03:28:29;20.23;;;13.50;;
9924;SDS011;5001;51.674;7.868;2023-04-15T03:30:58;21.37;;;14.13;;
9924;SDS011;5001;51.674;7.868;2023-04-15T03:33:26;30.90;;;16.73;;
9924;SDS011;5001;51.674;7.868;2023-04-15T03:35:53;21.37;;;14.53;;
9924;SDS011;5001;51.674;7.868;2023-04-15T03:38:20;68.13;;;29.13;;
9924;SDS011;5001;51.674;7.868;2023-04-15T03:40:46;37.03;;;19.47;;
9924;SDS011;5001;51.674;7.868;2023-04-15T03:43:13;17.43;;;12.17;;
9924;SDS011;5001;51.674;7.868;2023-04-15T03:45:40;14.40;;;11.47;;
9924;SDS011;5001;51.674;7.868;2023-04-15T03:48:07;14.07;;;11.10;;
9924;SDS011;5001;51.674;7.868;2023-04-15T03:50:43;14.17;;;10.63;;
9924;SDS011;5001;51.674;7.868;2023-04-15T03:53:10;13.30;;;11.90;;
9924;SDS011;5001;51.674;7.868;2023-04-15T03:55:37;14.13;;;10.83;;
9924;SDS011;5001;51.674;7.868;2023-04-15T03:58:04;13.63;;;10.87;;
9924;SDS011;5001;51.674;7.868;2023-04-15T04:00:31;13.50;;;11.37;;
9924;SDS011;5001;51.674;7.868;2023-04-15T04:02:58;14.67;;;11.57;;
9924;SDS011;5001;51.674;7.868;2023-04-15T04:05:26;17.43;;;11.60;;
9924;SDS011;5001;51.674;7.868;2023-04-15T04:07:53;13.53;;;11.67;;
9924;SDS011;5001;51.674;7.868;2023-04-15T04:10:20;15.37;;;11.87;;
9924;SDS011;5001;51.674;7.868;2023-04-15T04:12:47;16.17;;;11.20;;
9924;SDS011;5001;51.674;7.868;2023-04-15T04:15:14;12.33;;;10.57;;
9924;SDS011;5001;51.674;7.868;2023-04-15T04:17:41;19.83;;;12.07;;
9924;SDS011;5001;51.674;7.868;2023-04-15T04:20:08;16.87;;;11.80;;
9924;SDS011;5001;51.674;7.868;2023-04-15T04:22:38;14.53;;;11.50;;
9924;SDS011;5001;51.674;7.868;2023-04-15T04:25:06;15.70;;;10.50;;
9924;SDS011;5001;51.674;7.868;2023-04-15T04:27:35;16.67;;;11.70;;
9924;SDS011;5001;51.674;7.868;2023-04-15T04:30:03;13.27;;;10.40;;
9924;SDS011;5001;51.674;7.868;2023-04-15T04:32:31;12.83;;;10.57;;
9924;SDS011;5001;51.674;7.868;2023-04-15T04:34:58;12.90;;;10.13;;
9924;SDS011;5001;51.674;7.868;2023-04-15T04:37:25;14.50;;;10.83;;
9924;SDS011;5001;51.674;7.868;2023-04-15T04:39:52;13.60;;;10.97;;
9924;SDS011;5001;51.674;7.868;2023-04-15T04:42:19;16.13;;;11.43;;
9924;SDS011;5001;51.674;7.868;2023-04-15T04:44:46;13.50;;;11.33;;
9924;SDS011;5001;51.674;7.868;2023-04-15T04:47:13;14.10;;;11.47;;
9924;SDS011;5001;51.674;7.868;2023-04-15T04:49:40;14.83;;;10.60;;
9924;SDS011;5001;51.674;7.868;2023-04-15T04:52:07;16.07;;;12.37;;
9924;SDS011;5001;51.674;7.868;2023-04-15T04:54:34;15.37;;;11.77;;
9924;SDS011;5001;51.674;7.868;2023-04-15T04:57:01;14.40;;;10.77;;
9924;SDS011;5001;51.674;7.868;2023-04-15T04:59:28;15.00;;;11.30;;
9924;SDS011;5001;51.674;7.868;2023-04-15T05:01:55;13.70;;;10.77;;
9924;SDS011;5001;51.674;7.868;2023-04-15T05:04:22;14.27;;;11.20;;
9924;SDS011;5001;51.674;7.868;2023-04-15T05:06:49;12.27;;;10.60;;
9924;SDS011;5001;51.674;7.868;2023-04-15T05:09:17;16.93;;;12.50;;
9924;SDS011;5001;51.674;7.868;2023-04-15T05:11:44;13.30;;;11.10;;
9924;SDS011;5001;51.674;7.868;2023-04-15T05:14:11;12.20;;;10.30;;
9924;SDS011;5001;51.674;7.868;2023-04-15T05:16:38;14.63;;;9.90;;
9924;SDS011;5001;51.674;7.868;2023-04-15T05:19:05;12.70;;;10.10;;
9924;SDS011;5001;51.674;7.868;2023-04-15T05:21:33;22.20;;;10.80;;
9924;SDS011;5001;51.674;7.868;2023-04-15T05:24:00;17.30;;;11.37;;
9924;SDS011;5001;51.674;7.868;2023-04-15T05:26:27;20.47;;;12.10;;
9924;SDS011;5001;51.674;7.868;2023-04-15T05:28:54;15.03;;;11.83;;
9924;SDS011;5001;51.674;7.868;2023-04-15T05:31:21;13.43;;;9.80;;
9924;SDS011;5001;51.674;7.868;2023-04-15T05:33:48;12.63;;;10.07;;
9924;SDS011;5001;51.674;7.868;2023-04-15T05:36:15;18.30;;;11.33;;
9924;SDS011;5001;51.674;7.868;2023-04-15T05:38:41;16.40;;;10.63;;
9924;SDS011;5001;51.674;7.868;2023-04-15T05:41:08;16.93;;;11.10;;
9924;SDS011;5001;51.674;7.868;2023-04-15T05:43:35;16.80;;;11.73;;
9924;SDS011;5001;51.674;7.868;2023-04-15T05:46:02;14.50;;;11.90;;
9924;SDS011;5001;51.674;7.868;2023-04-15T05:48:29;12.53;;;10.90;;
9924;SDS011;5001;51.674;7.868;2023-04-15T05:50:56;13.07;;;11.00;;
9924;SDS011;5001;51.674;7.868;2023-04-15T05:53:23;15.37;;;11.30;;
9924;SDS011;5001;51.674;7.868;2023-04-15T05:55:50;14.87;;;11.27;;
9924;SDS011;5001;51.674;7.868;2023-04-15T05:58:17;15.43;;;12.27;;
9924;SDS011;5001;51.674;7.868;2023-04-15T06:00:44;20.13;;;14.33;;
9924;SDS011;5001;51.674;7.868;2023-04-15T06:03:11;19.13;;;15.17;;
9924;SDS011;5001;51.674;7.868;2023-04-15T06:05:39;18.17;;;14.53;;
9924;SDS011;5001;51.674;7.868;2023-04-15T06:08:06;21.30;;;19.20;;
9924;SDS011;5001;51.674;7.868;2023-04-15T06:10:34;18.67;;;12.97;;
9924;SDS011;5001;51.674;7.868;2023-04-15T06:13:02;13.30;;;11.93;;
9924;SDS011;5001;51.674;7.868;2023-04-15T06:15:29;17.70;;;12.80;;
9924;SDS011;5001;51.674;7.868;2023-04-15T06:17:57;18.20;;;13.57;;
9924;SDS011;5001;51.674;7.868;2023-04-15T06:20:24;15.73;;;13.37;;
9924;SDS011;5001;51.674;7.868;2023-04-15T06:22:51;14.70;;;12.97;;
9924;SDS011;5001;51.674;7.868;2023-04-15T06:25:18;15.13;;;11.90;;
9924;SDS011;5001;51.674;7.868;2023-04-15T06:27:45;13.80;;;11.20;;
9924;SDS011;5001;51.674;7.868;2023-04-15T06:30:13;14.30;;;12.07;;
9924;SDS011;5001;51.674;7.868;2023-04-15T06:32:40;14.13;;;12.17;;
9924;SDS011;5001;51.674;7.868;2023-04-15T06:35:07;11.93;;;10.73;;
9924;SDS011;5001;51.674;7.868;2023-04-15T06:37:34;14.37;;;11.50;;
9924;SDS011;5001;51.674;7.868;2023-04-15T06:40:02;14.47;;;11.63;;
9924;SDS011;5001;51.674;7.868;2023-04-15T06:42:30;12.83;;;10.73;;
9924;SDS011;5001;51.674;7.868;2023-04-15T06:44:57;14.43;;;10.67;;
9924;SDS011;5001;51.674;7.868;2023-04-15T06:47:24;11.60;;;10.40;;
9924;SDS011;5001;51.674;7.868;2023-04-15T06:49:51;12.20;;;10.37;;
9924;SDS011;5001;51.674;7.868;2023-04-15T06:52:18;11.67;;;10.43;;
9924;SDS011;5001;51.674;7.868;2023-04-15T06:54:45;12.30;;;11.00;;
9924;SDS011;5001;51.674;7.868;2023-04-15T06:57:12;12.70;;;10.50;;
9924;SDS011;5001;51.674;7.868;2023-04-15T06:59:39;10.60;;;9.50;;
9924;SDS011;5001;51.674;7.868;2023-04-15T07:02:06;11.30;;;9.80;;
9924;SDS011;5001;51.674;7.868;2023-04-15T07:04:37;11.50;;;10.30;;
9924;SDS011;5001;51.674;7.868;2023-04-15T07:07:05;14.60;;;10.07;;
9924;SDS011;5001;51.674;7.868;2023-04-15T07:09:33;16.47;;;11.63;;
9924;SDS011;5001;51.674;7.868;2023-04-15T07:12:00;11.63;;;10.43;;
9924;SDS011;5001;51.674;7.868;2023-04-15T07:14:27;11.33;;;10.00;;
9924;SDS011;5001;51.674;7.868;2023-04-15T07:16:54;14.00;;;10.30;;
9924;SDS011;5001;51.674;7.868;2023-04-15T07:19:21;12.23;;;10.10;;
9924;SDS011;5001;51.674;7.868;2023-04-15T07:21:48;11.47;;;10.27;;
9924;SDS011;5001;51.674;7.868;2023-04-15T07:24:15;12.17;;;10.33;;
9924;SDS011;5001;51.674;7.868;2023-04-15T07:26:44;11.07;;;9.87;;
9924;SDS011;5001;51.674;7.868;2023-04-15T07:29:11;12.43;;;9.77;;
9924;SDS011;5001;51.674;7.868;2023-04-15T07:31:38;11.27;;;9.93;;
9924;SDS011;5001;51.674;7.868;2023-04-15T07:34:07;14.43;;;10.38;;
9924;SDS011;5001;51.674;7.868;2023-04-15T07:36:34;11.48;;;10.15;;
9924;SDS011;5001;51.674;7.868;2023-04-15T07:39:02;14.20;;;11.10;;
9924;SDS011;5001;51.674;7.868;2023-04-15T07:41:29;11.25;;;10.05;;
9924;SDS011;5001;51.674;7.868;2023-04-15T07:43:57;12.02;;;9.43;;
9924;SDS011;5001;51.674;7.868;2023-04-15T07:46:24;11.73;;;10.30;;
9924;SDS011;5001;51.674;7.868;2023-04-15T07:48:52;11.45;;;10.32;;
9924;SDS011;5001;51.674;7.868;2023-04-15T07:51:19;10.60;;;9.50;;
9924;SDS011;5001;51.674;7.868;2023-04-15T07:53:47;13.23;;;10.77;;
9924;SDS011;5001;51.674;7.868;2023-04-15T07:56:15;12.80;;;10.93;;
9924;SDS011;5001;51.674;7.868;2023-04-15T07:58:42;12.05;;;10.05;;
9924;SDS011;5001;51.674;7.868;2023-04-15T08:01:09;15.30;;;11.47;;
9924;SDS011;5001;51.674;7.868;2023-04-15T08:03:36;12.57;;;10.83;;
9924;SDS011;5001;51.674;7.868;2023-04-15T08:06:04;11.87;;;10.67;;
9924;SDS011;5001;51.674;7.868;2023-04-15T08:08:31;10.45;;;9.35;;
9924;SDS011;5001;51.674;7.868;2023-04-15T08:10:58;11.10;;;9.60;;
9924;SDS011;5001;51.674;7.868;2023-04-15T08:13:25;10.70;;;8.95;;
9924;SDS011;5001;51.674;7.868;2023-04-15T08:18:46;14.87;;;10.60;;
9924;SDS011;5001;51.674;7.868;2023-04-15T08:21:14;11.67;;;9.40;;
9924;SDS011;5001;51.674;7.868;2023-04-15T08:23:42;12.77;;;9.67;;
9924;SDS011;5001;51.674;7.868;2023-04-15T08:26:10;11.43;;;9.67;;
9924;SDS011;5001;51.674;7.868;2023-04-15T08:28:38;11.33;;;10.23;;
9924;SDS011;5001;51.674;7.868;2023-04-15T08:31:06;13.43;;;10.70;;
9924;SDS011;5001;51.674;7.868;2023-04-15T08:33:34;11.93;;;10.73;;
9924;SDS011;5001;51.674;7.868;2023-04-15T08:36:01;14.13;;;11.60;;
9924;SDS011;5001;51.674;7.868;2023-04-15T08:38:28;12.83;;;11.53;;
9924;SDS011;5001;51.674;7.868;2023-04-15T08:40:57;13.03;;;11.20;;
9924;SDS011;5001;51.674;7.868;2023-04-15T08:43:32;13.10;;;11.80;;
9924;SDS011;5001;51.674;7.868;2023-04-15T08:46:00;15.33;;;12.30;;
9924;SDS011;5001;51.674;7.868;2023-04-15T08:48:31;13.13;;;11.80;;
9924;SDS011;5001;51.674;7.868;2023-04-15T08:51:00;12.57;;;11.27;;
9924;SDS011;5001;51.674;7.868;2023-04-15T08:53:28;13.20;;;11.70;;
9924;SDS011;5001;51.674;7.868;2023-04-15T08:55:56;13.00;;;11.43;;
9924;SDS011;5001;51.674;7.868;2023-04-15T08:58:25;12.60;;;10.67;;
9924;SDS011;5001;51.674;7.868;2023-04-15T09:00:52;12.40;;;11.03;;
9924;SDS011;5001;51.674;7.868;2023-04-15T09:03:20;13.57;;;10.57;;
9924;SDS011;5001;51.674;7.868;2023-04-15T09:05:49;12.23;;;10.93;;
9924;SDS011;5001;51.674;7.868;2023-04-15T09:08:18;12.37;;;10.57;;
9924;SDS011;5001;51.674;7.868;2023-04-15T09:10:45;12.27;;;10.97;;
9924;SDS011;5001;51.674;7.868;2023-04-15T09:13:12;11.40;;;10.20;;
9924;SDS011;5001;51.674;7.868;2023-04-15T09:15:39;13.00;;;11.00;;
9924;SDS011;5001;51.674;7.868;2023-04-15T09:18:07;12.60;;;11.10;;
9924;SDS011;5001;51.674;7.868;2023-04-15T09:20:40;12.03;;;10.83;;
9924;SDS011;5001;51.674;7.868;2023-04-15T09:23:14;11.57;;;10.20;;
9924;SDS011;5001;51.674;7.868;2023-04-15T09:25:42;12.23;;;10.93;;
9924;SDS011;5001;51.674;7.868;2023-04-15T09:28:12;10.40;;;8.93;;
9924;SDS011;5001;51.674;7.868;2023-04-15T09:30:38;8.67;;;7.70;;
9924;SDS011;5001;51.674;7.868;2023-04-15T09:33:13;11.27;;;8.57;;
9924;SDS011;5001;51.674;7.868;2023-04-15T09:35:40;10.07;;;8.13;;
9924;SDS011;5001;51.674;7.868;2023-04-15T09:38:08;10.33;;;9.17;;
9924;SDS011;5001;51.674;7.868;2023-04-15T09:40:36;10.13;;;8.80;;
9924;SDS011;5001;51.674;7.868;2023-04-15T09:43:08;10.37;;;8.43;;
9924;SDS011;5001;51.674;7.868;2023-04-15T09:45:38;11.13;;;8.63;;
9924;SDS011;5001;51.674;7.868;2023-04-15T09:48:17;9.53;;;8.47;;
9924;SDS011;5001;51.674;7.868;2023-04-15T09:50:50;11.53;;;9.40;;
9924;SDS011;5001;51.674;7.868;2023-04-15T09:53:19;11.57;;;9.90;;
9924;SDS011;5001;51.674;7.868;2023-04-15T09:55:51;12.37;;;9.37;;
9924;SDS011;5001;51.674;7.868;2023-04-15T09:58:20;9.87;;;8.77;;
9924;SDS011;5001;51.674;7.868;2023-04-15T10:00:52;11.83;;;9.90;;
9924;SDS011;5001;51.674;7.868;2023-04-15T10:03:24;13.03;;;9.80;;
9924;SDS011;5001;51.674;7.868;2023-04-15T10:05:58;12.33;;;10.23;;
9924;SDS011;5001;51.674;7.868;2023-04-15T10:08:27;12.17;;;9.83;;
9924;SDS011;5001;51.674;7.868;2023-04-15T10:10:56;11.13;;;9.43;;
9924;SDS011;5001;51.674;7.868;2023-04-15T10:13:24;11.53;;;9.30;;
9924;SDS011;5001;51.674;7.868;2023-04-15T10:16:09;11.67;;;9.77;;
9924;SDS011;5001;51.674;7.868;2023-04-15T10:18:41;11.70;;;8.43;;
9924;SDS011;5001;51.674;7.868;2023-04-15T10:21:13;11.50;;;9.73;;
9924;SDS011;5001;51.674;7.868;2023-04-15T10:23:46;11.13;;;9.07;;
9924;SDS011;5001;51.674;7.868;2023-04-15T10:26:14;12.10;;;10.23;;
9924;SDS011;5001;51.674;7.868;2023-04-15T10:28:43;12.07;;;9.70;;
9924;SDS011;5001;51.674;7.868;2023-04-15T10:31:10;12.60;;;10.53;;
9924;SDS011;5001;51.674;7.868;2023-04-15T10:33:41;12.30;;;10.40;;
9924;SDS011;5001;51.674;7.868;2023-04-15T10:36:09;14.00;;;10.60;;
9924;SDS011;5001;51.674;7.868;2023-04-15T10:38:41;12.97;;;9.50;;
9924;SDS011;5001;51.674;7.868;2023-04-15T10:41:17;10.43;;;9.33;;
9924;SDS011;5001;51.674;7.868;2023-04-15T10:46:22;13.20;;;9.17;;
9924;SDS011;5001;51.674;7.868;2023-04-15T10:49:10;11.33;;;8.90;;
9924;SDS011;5001;51.674;7.868;2023-04-15T10:51:40;9.53;;;8.27;;
9924;SDS011;5001;51.674;7.868;2023-04-15T10:54:17;9.93;;;7.93;;
9924;SDS011;5001;51.674;7.868;2023-04-15T10:59:38;8.33;;;7.30;;
9924;SDS011;5001;51.674;7.868;2023-04-15T11:02:44;10.53;;;8.33;;
9924;SDS011;5001;51.674;7.868;2023-04-15T11:05:47;9.50;;;8.33;;
9924;SDS011;5001;51.674;7.868;2023-04-15T11:08:17;9.90;;;8.73;;
9924;SDS011;5001;51.674;7.868;2023-04-15T11:13:16;9.53;;;8.27;;
9924;SDS011;5001;51.674;7.868;2023-04-15T11:15:47;12.00;;;9.70;;
9924;SDS011;5001;51.674;7.868;2023-04-15T11:20:43;15.00;;;13.47;;
9924;SDS011;5001;51.674;7.868;2023-04-15T11:23:14;10.63;;;9.53;;
9924;SDS011;5001;51.674;7.868;2023-04-15T11:25:43;11.70;;;10.50;;
9924;SDS011;5001;51.674;7.868;2023-04-15T11:28:11;11.70;;;10.50;;
9924;SDS011;5001;51.674;7.868;2023-04-15T11:30:38;12.43;;;8.77;;
9924;SDS011;5001;51.674;7.868;2023-04-15T11:33:07;11.93;;;10.00;;
9924;SDS011;5001;51.674;7.868;2023-04-15T11:35:35;11.27;;;9.50;;
9924;SDS011;5001;51.674;7.868;2023-04-15T11:38:02;10.13;;;9.03;;
9924;SDS011;5001;51.674;7.868;2023-04-15T11:40:31;9.53;;;8.43;;
9924;SDS011;5001;51.674;7.868;2023-04-15T11:43:04;9.30;;;8.00;;
9924;SDS011;5001;51.674;7.868;2023-04-15T11:45:58;9.30;;;8.40;;
9924;SDS011;5001;51.674;7.868;2023-04-15T11:48:30;9.67;;;8.63;;
9924;SDS011;5001;51.674;7.868;2023-04-15T11:50:59;9.07;;;7.83;;
9924;SDS011;5001;51.674;7.868;2023-04-15T11:53:38;11.27;;;9.53;;
9924;SDS011;5001;51.674;7.868;2023-04-15T11:56:07;10.93;;;9.70;;
9924;SDS011;5001;51.674;7.868;2023-04-15T11:58:35;9.13;;;8.23;;
9924;SDS011;5001;51.674;7.868;2023-04-15T12:01:04;10.43;;;7.87;;
9924;SDS011;5001;51.674;7.868;2023-04-15T12:11:31;10.20;;;8.27;;
9924;SDS011;5001;51.674;7.868;2023-04-15T12:14:11;9.20;;;7.80;;
9924;SDS011;5001;51.674;7.868;2023-04-15T12:16:42;8.87;;;7.97;;
9924;SDS011;5001;51.674;7.868;2023-04-15T12:19:18;9.87;;;8.23;;
9924;SDS011;5001;51.674;7.868;2023-04-15T12:21:49;7.73;;;6.87;;
9924;SDS011;5001;51.674;7.868;2023-04-15T12:24:19;9.83;;;7.53;;
9924;SDS011;5001;51.674;7.868;2023-04-15T12:26:51;8.90;;;6.77;;
9924;SDS011;5001;51.674;7.868;2023-04-15T12:29:19;7.23;;;5.90;;
9924;SDS011;5001;51.674;7.868;2023-04-15T12:31:51;7.93;;;5.60;;
9924;SDS011;5001;51.674;7.868;2023-04-15T12:34:33;9.00;;;6.70;;
9924;SDS011;5001;51.674;7.868;2023-04-15T12:37:02;17.97;;;11.67;;
9924;SDS011;5001;51.674;7.868;2023-04-15T12:39:34;22.17;;;15.30;;
9924;SDS011;5001;51.674;7.868;2023-04-15T12:42:03;9.00;;;7.47;;
9924;SDS011;5001;51.674;7.868;2023-04-15T12:44:31;7.57;;;6.27;;
9924;SDS011;5001;51.674;7.868;2023-04-15T12:46:59;6.00;;;5.00;;
9924;SDS011;5001;51.674;7.868;2023-04-15T12:49:26;7.87;;;5.43;;
9924;SDS011;5001;51.674;7.868;2023-04-15T12:51:57;6.23;;;5.63;;
9924;SDS011;5001;51.674;7.868;2023-04-15T12:54:29;7.57;;;6.20;;
9924;SDS011;5001;51.674;7.868;2023-04-15T12:56:56;6.17;;;5.57;;
9924;SDS011;5001;51.674;7.868;2023-04-15T12:59:24;6.27;;;5.43;;
9924;SDS011;5001;51.674;7.868;2023-04-15T13:01:52;5.70;;;5.10;;
9924;SDS011;5001;51.674;7.868;2023-04-15T13:04:19;5.17;;;4.77;;
9924;SDS011;5001;51.674;7.868;2023-04-15T13:06:47;5.80;;;5.20;;
9924;SDS011;5001;51.674;7.868;2023-04-15T13:09:14;4.97;;;4.47;;
9924;SDS011;5001;51.674;7.868;2023-04-15T13:11:41;7.93;;;5.50;;
9924;SDS011;5001;51.674;7.868;2023-04-15T13:14:09;5.97;;;5.20;;
9924;SDS011;5001;51.674;7.868;2023-04-15T13:16:39;5.37;;;4.73;;
9924;SDS011;5001;51.674;7.868;2023-04-15T13:19:06;5.03;;;4.57;;
9924;SDS011;5001;51.674;7.868;2023-04-15T13:21:33;5.30;;;4.47;;
9924;SDS011;5001;51.674;7.868;2023-04-15T13:24:02;5.07;;;4.57;;
9924;SDS011;5001;51.674;7.868;2023-04-15T13:26:30;4.80;;;4.23;;
9924;SDS011;5001;51.674;7.868;2023-04-15T13:28:57;5.77;;;4.77;;
9924;SDS011;5001;51.674;7.868;2023-04-15T13:31:25;5.00;;;4.50;;
9924;SDS011;5001;51.674;7.868;2023-04-15T13:33:52;5.37;;;4.80;;
9924;SDS011;5001;51.674;7.868;2023-04-15T13:36:19;5.17;;;4.63;;
9924;SDS011;5001;51.674;7.868;2023-04-15T13:38:46;6.80;;;6.10;;
9924;SDS011;5001;51.674;7.868;2023-04-15T13:41:16;6.23;;;5.07;;
9924;SDS011;5001;51.674;7.868;2023-04-15T13:43:44;5.47;;;4.13;;
9924;SDS011;5001;51.674;7.868;2023-04-15T13:46:11;4.80;;;4.40;;
9924;SDS011;5001;51.674;7.868;2023-04-15T13:48:38;5.47;;;4.87;;
9924;SDS011;5001;51.674;7.868;2023-04-15T13:51:05;4.60;;;4.20;;
9924;SDS011;5001;51.674;7.868;2023-04-15T13:53:32;5.33;;;4.20;;
9924;SDS011;5001;51.674;7.868;2023-04-15T13:56:07;9.40;;;8.50;;
9924;SDS011;5001;51.674;7.868;2023-04-15T13:58:35;5.93;;;5.43;;
9924;SDS011;5001;51.674;7.868;2023-04-15T14:01:03;6.80;;;6.17;;
9924;SDS011;5001;51.674;7.868;2023-04-15T14:03:35;7.67;;;6.87;;
9924;SDS011;5001;51.674;7.868;2023-04-15T14:06:04;5.20;;;4.70;;
9924;SDS011;5001;51.674;7.868;2023-04-15T14:08:31;5.90;;;5.30;;
9924;SDS011;5001;51.674;7.868;2023-04-15T14:10:59;10.17;;;9.27;;
9924;SDS011;5001;51.674;7.868;2023-04-15T14:13:26;10.13;;;9.20;;
9924;SDS011;5001;51.674;7.868;2023-04-15T14:15:53;8.37;;;6.97;;
9924;SDS011;5001;51.674;7.868;2023-04-15T14:18:20;5.53;;;5.00;;
9924;SDS011;5001;51.674;7.868;2023-04-15T14:20:47;5.13;;;4.63;;
9924;SDS011;5001;51.674;7.868;2023-04-15T14:23:14;6.13;;;5.53;;
9924;SDS011;5001;51.674;7.868;2023-04-15T14:25:41;7.10;;;5.60;;
9924;SDS011;5001;51.674;7.868;2023-04-15T14:28:11;7.83;;;6.70;;
9924;SDS011;5001;51.674;7.868;2023-04-15T14:30:38;5.97;;;5.37;;
9924;SDS011;5001;51.674;7.868;2023-04-15T14:33:05;6.27;;;5.47;;
9924;SDS011;5001;51.674;7.868;2023-04-15T14:35:32;7.10;;;5.90;;
9924;SDS011;5001;51.674;7.868;2023-04-15T14:37:59;6.30;;;5.70;;
9924;SDS011;5001;51.674;7.868;2023-04-15T14:40:26;7.33;;;6.00;;
9924;SDS011;5001;51.674;7.868;2023-04-15T14:42:53;6.07;;;5.50;;
9924;SDS011;5001;51.674;7.868;2023-04-15T14:45:20;7.20;;;6.50;;
9924;SDS011;5001;51.674;7.868;2023-04-15T14:47:47;6.73;;;5.90;;
9924;SDS011;5001;51.674;7.868;2023-04-15T14:50:14;7.30;;;6.43;;
9924;SDS011;5001;51.674;7.868;2023-04-15T14:52:41;8.30;;;7.50;;
9924;SDS011;5001;51.674;7.868;2023-04-15T14:55:09;9.80;;;7.03;;
9924;SDS011;5001;51.674;7.868;2023-04-15T14:57:37;8.07;;;7.27;;
9924;SDS011;5001;51.674;7.868;2023-04-15T15:00:05;6.77;;;6.17;;
9924;SDS011;5001;51.674;7.868;2023-04-15T15:02:33;7.57;;;6.90;;
9924;SDS011;5001;51.674;7.868;2023-04-15T15:05:05;8.83;;;7.60;;
9924;SDS011;5001;51.674;7.868;2023-04-15T15:07:34;8.37;;;7.57;;
9924;SDS011;5001;51.674;7.868;2023-04-15T15:10:02;12.27;;;8.50;;
9924;SDS011;5001;51.674;7.868;2023-04-15T15:12:31;9.53;;;8.60;;
9924;SDS011;5001;51.674;7.868;2023-04-15T15:14:58;8.13;;;6.87;;
9924;SDS011;5001;51.674;7.868;2023-04-15T15:17:30;8.30;;;7.50;;
9924;SDS011;5001;51.674;7.868;2023-04-15T15:19:57;7.93;;;7.13;;
9924;SDS011;5001;51.674;7.868;2023-04-15T15:22:24;8.80;;;7.90;;
9924;SDS011;5001;51.674;7.868;2023-04-15T15:24:51;8.03;;;7.23;;
9924;SDS011;5001;51.674;7.868;2023-04-15T15:27:19;7.93;;;7.13;;